Terminal Aerodrome Forecast
Issued by NWS

Home | Current Version | Previous Version | Text Only | Print | Product List | Glossary On
Versions: 1 2 3 4 5 6 7 8 9 10 11 12
000
FTUS44 KLZK 010500
TAFHOT
TAF
KHOT 010529Z 0106/0206 12006KT P6SM VCSH SCT025 BKN035 OVC100
      TEMPO 0106/0108 5SM -RA BR BKN025
     FM010800 17010KT 5SM -SHRA BKN012 OVC025
      TEMPO 0109/0113 2SM SHRA BR OVC006
     FM011700 27012G20KT P6SM VCSH BKN020 OVC050
     FM020000 30014G24KT P6SM SCT025 BKN080=

USA.gov is the U.S. government's official web portal to all federal, state and local government web resources and services.